sensor_id;sensor_type;location;lat;lon;timestamp;pressure;altitude;pressure_sealevel;temperature;humidity
55576;BME280;41437;45.478;9.116;2022-10-31T00:00:35;100435.63;;;12.71;100.00
55576;BME280;41437;45.478;9.116;2022-10-31T00:03:36;100439.50;;;12.75;100.00
55576;BME280;41437;45.478;9.116;2022-10-31T00:06:38;100435.91;;;12.75;100.00
55576;BME280;41437;45.478;9.116;2022-10-31T00:09:41;100435.84;;;12.70;100.00
55576;BME280;41437;45.478;9.116;2022-10-31T00:12:42;100447.91;;;12.58;100.00
55576;BME280;41437;45.478;9.116;2022-10-31T00:15:44;100442.25;;;12.48;100.00
55576;BME280;41437;45.478;9.116;2022-10-31T00:18:48;100438.66;;;12.48;100.00
55576;BME280;41437;45.478;9.116;2022-10-31T00:21:51;100437.31;;;12.50;100.00
55576;BME280;41437;45.478;9.116;2022-10-31T00:24:54;100440.06;;;12.50;100.00
55576;BME280;41437;45.478;9.116;2022-10-31T00:27:56;100436.22;;;12.51;100.00
55576;BME280;41437;45.478;9.116;2022-10-31T00:31:00;100439.25;;;12.50;100.00
55576;BME280;41437;45.478;9.116;2022-10-31T00:34:02;100435.06;;;12.47;100.00
55576;BME280;41437;45.478;9.116;2022-10-31T00:37:04;100431.19;;;12.48;100.00
55576;BME280;41437;45.478;9.116;2022-10-31T00:40:08;100436.34;;;12.40;100.00
55576;BME280;41437;45.478;9.116;2022-10-31T00:43:10;100438.78;;;12.36;100.00
55576;BME280;41437;45.478;9.116;2022-10-31T00:46:12;100438.22;;;12.34;100.00
55576;BME280;41437;45.478;9.116;2022-10-31T00:49:14;100442.66;;;12.35;100.00
55576;BME280;41437;45.478;9.116;2022-10-31T00:52:15;100438.50;;;12.32;100.00
55576;BME280;41437;45.478;9.116;2022-10-31T00:55:18;100428.25;;;12.33;100.00
55576;BME280;41437;45.478;9.116;2022-10-31T00:58:20;100431.84;;;12.33;100.00
55576;BME280;41437;45.478;9.116;2022-10-31T01:01:21;100438.78;;;12.36;100.00
55576;BME280;41437;45.478;9.116;2022-10-31T01:04:23;100433.00;;;12.38;100.00
55576;BME280;41437;45.478;9.116;2022-10-31T01:07:24;100437.06;;;12.30;100.00
55576;BME280;41437;45.478;9.116;2022-10-31T01:10:27;100426.72;;;12.20;100.00
55576;BME280;41437;45.478;9.116;2022-10-31T01:13:29;100434.13;;;12.15;100.00
55576;BME280;41437;45.478;9.116;2022-10-31T01:16:31;100431.38;;;12.15;100.00
55576;BME280;41437;45.478;9.116;2022-10-31T01:19:32;100429.34;;;12.10;100.00
55576;BME280;41437;45.478;9.116;2022-10-31T01:22:34;100429.59;;;12.08;100.00
55576;BME280;41437;45.478;9.116;2022-10-31T01:25:37;100420.50;;;12.08;100.00
55576;BME280;41437;45.478;9.116;2022-10-31T01:28:42;100422.69;;;12.06;100.00
55576;BME280;41437;45.478;9.116;2022-10-31T01:31:44;100424.34;;;12.07;100.00
55576;BME280;41437;45.478;9.116;2022-10-31T01:34:46;100421.25;;;12.03;100.00
55576;BME280;41437;45.478;9.116;2022-10-31T01:37:48;100415.41;;;12.00;100.00
55576;BME280;41437;45.478;9.116;2022-10-31T01:40:51;100414.00;;;11.97;100.00
55576;BME280;41437;45.478;9.116;2022-10-31T01:43:54;100414.50;;;11.94;100.00
55576;BME280;41437;45.478;9.116;2022-10-31T01:46:57;100421.97;;;11.94;100.00
55576;BME280;41437;45.478;9.116;2022-10-31T01:50:01;100426.06;;;11.91;100.00
55576;BME280;41437;45.478;9.116;2022-10-31T01:53:03;100419.16;;;11.89;100.00
55576;BME280;41437;45.478;9.116;2022-10-31T01:56:10;100412.75;;;11.88;100.00
55576;BME280;41437;45.478;9.116;2022-10-31T01:59:12;100418.81;;;11.85;100.00
55576;BME280;41437;45.478;9.116;2022-10-31T02:02:16;100416.28;;;11.83;100.00
55576;BME280;41437;45.478;9.116;2022-10-31T02:05:20;100418.28;;;11.88;100.00
55576;BME280;41437;45.478;9.116;2022-10-31T02:08:27;100420.81;;;11.90;100.00
55576;BME280;41437;45.478;9.116;2022-10-31T02:11:31;100413.34;;;11.90;100.00
55576;BME280;41437;45.478;9.116;2022-10-31T02:14:33;100416.38;;;11.89;100.00
55576;BME280;41437;45.478;9.116;2022-10-31T02:17:35;100407.78;;;11.85;100.00
55576;BME280;41437;45.478;9.116;2022-10-31T02:20:44;100407.78;;;11.85;100.00
55576;BME280;41437;45.478;9.116;2022-10-31T02:24:15;100407.50;;;11.87;100.00
55576;BME280;41437;45.478;9.116;2022-10-31T02:27:41;100403.31;;;11.84;100.00
55576;BME280;41437;45.478;9.116;2022-10-31T02:31:01;100393.97;;;11.85;100.00
55576;BME280;41437;45.478;9.116;2022-10-31T02:34:13;100393.44;;;11.88;100.00
55576;BME280;41437;45.478;9.116;2022-10-31T02:37:24;100388.78;;;11.89;100.00
55576;BME280;41437;45.478;9.116;2022-10-31T02:40:32;100386.00;;;11.89;100.00
55576;BME280;41437;45.478;9.116;2022-10-31T02:43:40;100394.84;;;11.91;100.00
55576;BME280;41437;45.478;9.116;2022-10-31T02:46:48;100398.94;;;11.88;100.00
55576;BME280;41437;45.478;9.116;2022-10-31T02:49:55;100393.44;;;11.88;100.00
55576;BME280;41437;45.478;9.116;2022-10-31T02:52:58;100392.59;;;11.88;100.00
55576;BME280;41437;45.478;9.116;2022-10-31T02:56:03;100390.16;;;11.91;100.00
55576;BME280;41437;45.478;9.116;2022-10-31T02:59:05;100392.94;;;11.91;100.00
55576;BME280;41437;45.478;9.116;2022-10-31T03:02:21;100387.06;;;11.88;100.00
55576;BME280;41437;45.478;9.116;2022-10-31T03:05:48;100389.50;;;11.84;100.00
55576;BME280;41437;45.478;9.116;2022-10-31T03:09:00;100392.03;;;11.86;100.00
55576;BME280;41437;45.478;9.116;2022-10-31T03:12:07;100388.69;;;11.83;100.00
55576;BME280;41437;45.478;9.116;2022-10-31T03:15:14;100394.78;;;11.86;100.00
55576;BME280;41437;45.478;9.116;2022-10-31T03:18:21;100387.63;;;11.85;100.00
55576;BME280;41437;45.478;9.116;2022-10-31T03:21:27;100390.25;;;11.79;100.00
55576;BME280;41437;45.478;9.116;2022-10-31T03:24:37;100393.53;;;11.76;100.00
55576;BME280;41437;45.478;9.116;2022-10-31T03:27:41;100388.25;;;11.75;100.00
55576;BME280;41437;45.478;9.116;2022-10-31T03:30:43;100398.47;;;11.74;100.00
55576;BME280;41437;45.478;9.116;2022-10-31T03:33:49;100395.97;;;11.73;100.00
55576;BME280;41437;45.478;9.116;2022-10-31T03:36:55;100395.97;;;11.73;100.00
55576;BME280;41437;45.478;9.116;2022-10-31T03:39:58;100395.97;;;11.73;100.00
55576;BME280;41437;45.478;9.116;2022-10-31T03:43:04;100405.91;;;11.74;100.00
55576;BME280;41437;45.478;9.116;2022-10-31T03:46:09;100403.75;;;11.76;100.00
55576;BME280;41437;45.478;9.116;2022-10-31T03:49:12;100404.59;;;11.76;100.00
55576;BME280;41437;45.478;9.116;2022-10-31T03:52:17;100409.16;;;11.71;100.00
55576;BME280;41437;45.478;9.116;2022-10-31T03:55:27;100398.66;;;11.68;100.00
55576;BME280;41437;45.478;9.116;2022-10-31T03:58:34;100412.78;;;11.71;100.00
55576;BME280;41437;45.478;9.116;2022-10-31T04:01:42;100402.53;;;11.67;100.00
55576;BME280;41437;45.478;9.116;2022-10-31T04:04:49;100404.69;;;11.65;100.00
55576;BME280;41437;45.478;9.116;2022-10-31T04:07:53;100410.69;;;11.62;100.00
55576;BME280;41437;45.478;9.116;2022-10-31T04:10:57;100398.50;;;11.57;100.00
55576;BME280;41437;45.478;9.116;2022-10-31T04:14:01;100406.63;;;11.64;100.00
55576;BME280;41437;45.478;9.116;2022-10-31T04:17:08;100395.50;;;11.59;100.00
55576;BME280;41437;45.478;9.116;2022-10-31T04:20:15;100403.53;;;11.61;100.00
55576;BME280;41437;45.478;9.116;2022-10-31T04:23:18;100403.53;;;11.61;100.00
55576;BME280;41437;45.478;9.116;2022-10-31T04:26:21;100407.63;;;11.58;100.00
55576;BME280;41437;45.478;9.116;2022-10-31T04:29:22;100400.09;;;11.53;100.00
55576;BME280;41437;45.478;9.116;2022-10-31T04:32:24;100406.47;;;11.54;100.00
55576;BME280;41437;45.478;9.116;2022-10-31T04:35:27;100399.19;;;11.48;100.00
55576;BME280;41437;45.478;9.116;2022-10-31T04:38:29;100405.03;;;11.51;100.00
55576;BME280;41437;45.478;9.116;2022-10-31T04:41:30;100405.88;;;11.52;100.00
55576;BME280;41437;45.478;9.116;2022-10-31T04:44:32;100405.03;;;11.51;100.00
55576;BME280;41437;45.478;9.116;2022-10-31T04:47:33;100403.03;;;11.47;100.00
55576;BME280;41437;45.478;9.116;2022-10-31T04:50:36;100400.44;;;11.40;100.00
55576;BME280;41437;45.478;9.116;2022-10-31T04:53:38;100394.38;;;11.38;100.00
55576;BME280;41437;45.478;9.116;2022-10-31T04:56:39;100403.22;;;11.40;100.00
55576;BME280;41437;45.478;9.116;2022-10-31T04:59:41;100403.53;;;11.44;100.00
55576;BME280;41437;45.478;9.116;2022-10-31T05:02:43;100399.19;;;11.48;100.00
55576;BME280;41437;45.478;9.116;2022-10-31T05:05:47;100406.38;;;11.49;100.00
55576;BME280;41437;45.478;9.116;2022-10-31T05:08:48;100406.38;;;11.49;100.00
55576;BME280;41437;45.478;9.116;2022-10-31T05:11:50;100397.19;;;11.43;100.00
55576;BME280;41437;45.478;9.116;2022-10-31T05:14:51;100399.13;;;11.43;100.00
55576;BME280;41437;45.478;9.116;2022-10-31T05:17:54;100395.88;;;11.46;100.00
55576;BME280;41437;45.478;9.116;2022-10-31T05:20:57;100401.31;;;11.41;100.00
55576;BME280;41437;45.478;9.116;2022-10-31T05:23:59;100403.97;;;11.36;100.00
55576;BME280;41437;45.478;9.116;2022-10-31T05:27:00;100399.72;;;11.28;100.00
55576;BME280;41437;45.478;9.116;2022-10-31T05:30:02;100385.00;;;11.22;100.00
55576;BME280;41437;45.478;9.116;2022-10-31T05:33:04;100398.56;;;11.24;100.00
55576;BME280;41437;45.478;9.116;2022-10-31T05:36:07;100399.13;;;11.26;100.00
55576;BME280;41437;45.478;9.116;2022-10-31T05:39:09;100400.63;;;11.33;100.00
55576;BME280;41437;45.478;9.116;2022-10-31T05:42:10;100400.16;;;11.37;100.00
55576;BME280;41437;45.478;9.116;2022-10-31T05:45:14;100400.91;;;11.32;100.00
55576;BME280;41437;45.478;9.116;2022-10-31T05:48:15;100402.03;;;11.36;100.00
55576;BME280;41437;45.478;9.116;2022-10-31T05:51:18;100404.22;;;11.34;100.00
55576;BME280;41437;45.478;9.116;2022-10-31T05:54:20;100401.47;;;11.34;100.00
55576;BME280;41437;45.478;9.116;2022-10-31T05:57:22;100397.88;;;11.33;100.00
55576;BME280;41437;45.478;9.116;2022-10-31T06:00:24;100393.53;;;11.38;100.00
55576;BME280;41437;45.478;9.116;2022-10-31T06:03:26;100406.56;;;11.42;100.00
55576;BME280;41437;45.478;9.116;2022-10-31T06:06:29;100402.72;;;11.43;100.00
55576;BME280;41437;45.478;9.116;2022-10-31T06:09:30;100397.78;;;11.45;100.00
55576;BME280;41437;45.478;9.116;2022-10-31T06:12:32;100406.13;;;11.50;100.00
55576;BME280;41437;45.478;9.116;2022-10-31T06:15:37;100403.88;;;11.47;100.00
55576;BME280;41437;45.478;9.116;2022-10-31T06:18:39;100413.59;;;11.50;100.00
55576;BME280;41437;45.478;9.116;2022-10-31T06:21:42;100409.22;;;11.54;100.00
55576;BME280;41437;45.478;9.116;2022-10-31T06:24:44;100421.03;;;11.49;100.00
55576;BME280;41437;45.478;9.116;2022-10-31T06:27:45;100421.88;;;11.50;100.00
55576;BME280;41437;45.478;9.116;2022-10-31T06:30:47;100423.78;;;11.49;100.00
55576;BME280;41437;45.478;9.116;2022-10-31T06:33:48;100421.34;;;11.53;100.00
55576;BME280;41437;45.478;9.116;2022-10-31T06:36:51;100430.22;;;11.55;100.00
55576;BME280;41437;45.478;9.116;2022-10-31T06:39:53;100429.38;;;11.54;100.00
55576;BME280;41437;45.478;9.116;2022-10-31T06:42:58;100433.81;;;11.55;100.00
55576;BME280;41437;45.478;9.116;2022-10-31T06:46:02;100433.53;;;11.57;100.00
55576;BME280;41437;45.478;9.116;2022-10-31T06:49:04;100432.56;;;11.63;100.00
55576;BME280;41437;45.478;9.116;2022-10-31T06:52:07;100437.38;;;11.73;100.00
55576;BME280;41437;45.478;9.116;2022-10-31T06:55:08;100439.47;;;11.82;100.00
55576;BME280;41437;45.478;9.116;2022-10-31T06:58:11;100442.63;;;11.91;100.00
55576;BME280;41437;45.478;9.116;2022-10-31T07:01:12;100441.94;;;12.01;100.00
55576;BME280;41437;45.478;9.116;2022-10-31T07:04:14;100428.28;;;12.11;100.00
55576;BME280;41437;45.478;9.116;2022-10-31T07:07:18;100452.09;;;12.39;100.00
55576;BME280;41437;45.478;9.116;2022-10-31T07:10:22;100450.09;;;12.56;100.00
55576;BME280;41437;45.478;9.116;2022-10-31T07:13:24;100455.53;;;12.73;100.00
55576;BME280;41437;45.478;9.116;2022-10-31T07:16:26;100453.75;;;12.89;100.00
55576;BME280;41437;45.478;9.116;2022-10-31T07:19:27;100463.06;;;13.10;100.00
55576;BME280;41437;45.478;9.116;2022-10-31T07:22:33;100470.22;;;13.28;100.00
55576;BME280;41437;45.478;9.116;2022-10-31T07:25:35;100474.19;;;13.42;100.00
55576;BME280;41437;45.478;9.116;2022-10-31T07:28:37;100474.25;;;13.52;100.00
55576;BME280;41437;45.478;9.116;2022-10-31T07:31:38;100471.84;;;13.61;100.00
55576;BME280;41437;45.478;9.116;2022-10-31T07:34:40;100480.78;;;13.73;100.00
55576;BME280;41437;45.478;9.116;2022-10-31T07:37:45;100482.25;;;13.81;100.00
55576;BME280;41437;45.478;9.116;2022-10-31T07:40:50;100482.81;;;13.88;100.00
55576;BME280;41437;45.478;9.116;2022-10-31T07:43:53;100490.72;;;14.06;100.00
55576;BME280;41437;45.478;9.116;2022-10-31T07:46:54;100490.75;;;14.17;100.00
55576;BME280;41437;45.478;9.116;2022-10-31T07:49:56;100489.44;;;14.24;100.00
55576;BME280;41437;45.478;9.116;2022-10-31T07:52:59;100489.75;;;14.33;100.00
55576;BME280;41437;45.478;9.116;2022-10-31T07:56:01;100497.28;;;14.48;100.00
55576;BME280;41437;45.478;9.116;2022-10-31T07:59:03;100505.13;;;14.61;100.00
55576;BME280;41437;45.478;9.116;2022-10-31T08:02:08;100499.88;;;14.65;100.00
55576;BME280;41437;45.478;9.116;2022-10-31T08:05:12;100498.25;;;14.69;100.00
55576;BME280;41437;45.478;9.116;2022-10-31T08:08:18;100506.03;;;14.77;100.00
55576;BME280;41437;45.478;9.116;2022-10-31T08:11:26;100507.69;;;14.83;100.00
55576;BME280;41437;45.478;9.116;2022-10-31T08:14:28;100501.63;;;14.91;100.00
55576;BME280;41437;45.478;9.116;2022-10-31T08:17:29;100503.34;;;15.02;100.00
55576;BME280;41437;45.478;9.116;2022-10-31T08:20:31;100496.97;;;15.12;100.00
55576;BME280;41437;45.478;9.116;2022-10-31T08:23:34;100499.44;;;15.19;100.00
55576;BME280;41437;45.478;9.116;2022-10-31T08:26:36;100503.91;;;15.25;100.00
55576;BME280;41437;45.478;9.116;2022-10-31T08:29:37;100502.53;;;15.32;100.00
55576;BME280;41437;45.478;9.116;2022-10-31T08:32:39;100496.72;;;15.39;100.00
55576;BME280;41437;45.478;9.116;2022-10-31T08:35:41;100508.38;;;15.41;100.00
55576;BME280;41437;45.478;9.116;2022-10-31T08:38:44;100506.16;;;15.48;100.00
55576;BME280;41437;45.478;9.116;2022-10-31T08:41:47;100501.16;;;15.55;100.00
55576;BME280;41437;45.478;9.116;2022-10-31T08:44:49;100494.47;;;15.62;100.00
55576;BME280;41437;45.478;9.116;2022-10-31T08:47:51;100505.63;;;15.72;98.45
55576;BME280;41437;45.478;9.116;2022-10-31T08:50:56;100505.63;;;15.82;99.25
55576;BME280;41437;45.478;9.116;2022-10-31T08:53:59;100508.66;;;15.91;98.08
55576;BME280;41437;45.478;9.116;2022-10-31T08:57:01;100514.19;;;16.01;94.80
55576;BME280;41437;45.478;9.116;2022-10-31T09:00:05;100511.41;;;16.16;94.38
55576;BME280;41437;45.478;9.116;2022-10-31T09:03:11;100511.31;;;16.37;93.78
55576;BME280;41437;45.478;9.116;2022-10-31T09:06:13;100506.00;;;16.45;92.59
55576;BME280;41437;45.478;9.116;2022-10-31T09:09:16;100521.00;;;16.59;91.97
55576;BME280;41437;45.478;9.116;2022-10-31T09:12:18;100520.94;;;16.70;90.92
55576;BME280;41437;45.478;9.116;2022-10-31T09:15:19;100525.28;;;16.96;89.89
55576;BME280;41437;45.478;9.116;2022-10-31T09:18:22;100521.03;;;17.09;88.32
55576;BME280;41437;45.478;9.116;2022-10-31T09:21:24;100530.41;;;17.23;87.79
55576;BME280;41437;45.478;9.116;2022-10-31T09:24:27;100527.28;;;17.35;88.08
55576;BME280;41437;45.478;9.116;2022-10-31T09:27:29;100523.53;;;17.50;87.74
55576;BME280;41437;45.478;9.116;2022-10-31T09:30:33;100519.31;;;17.57;87.41
55576;BME280;41437;45.478;9.116;2022-10-31T09:33:34;100522.91;;;17.63;87.42
55576;BME280;41437;45.478;9.116;2022-10-31T09:36:37;100518.16;;;17.64;86.21
55576;BME280;41437;45.478;9.116;2022-10-31T09:39:40;100528.13;;;17.75;86.88
55576;BME280;41437;45.478;9.116;2022-10-31T09:42:54;100513.50;;;17.88;85.65
55576;BME280;41437;45.478;9.116;2022-10-31T09:46:08;100521.63;;;18.14;84.75
55576;BME280;41437;45.478;9.116;2022-10-31T09:49:54;100522.34;;;18.24;84.58
55576;BME280;41437;45.478;9.116;2022-10-31T09:53:02;100518.38;;;18.30;83.93
55576;BME280;41437;45.478;9.116;2022-10-31T09:56:09;100516.59;;;18.40;83.46
55576;BME280;41437;45.478;9.116;2022-10-31T09:59:15;100523.66;;;18.56;82.25
55576;BME280;41437;45.478;9.116;2022-10-31T10:02:23;100517.13;;;18.66;81.61
55576;BME280;41437;45.478;9.116;2022-10-31T10:05:32;100514.22;;;18.76;81.70
55576;BME280;41437;45.478;9.116;2022-10-31T10:08:35;100510.84;;;18.79;80.87
55576;BME280;41437;45.478;9.116;2022-10-31T10:11:50;100509.13;;;19.02;80.95
55576;BME280;41437;45.478;9.116;2022-10-31T10:15:05;100514.25;;;19.14;81.50
55576;BME280;41437;45.478;9.116;2022-10-31T10:18:27;100501.00;;;19.24;81.43
55576;BME280;41437;45.478;9.116;2022-10-31T10:21:38;100502.09;;;19.42;80.47
55576;BME280;41437;45.478;9.116;2022-10-31T10:24:55;100509.16;;;19.53;77.54
55576;BME280;41437;45.478;9.116;2022-10-31T10:28:10;100507.19;;;19.54;77.58
55576;BME280;41437;45.478;9.116;2022-10-31T10:31:20;100506.81;;;19.79;76.90
55576;BME280;41437;45.478;9.116;2022-10-31T10:34:26;100514.13;;;19.94;75.28
55576;BME280;41437;45.478;9.116;2022-10-31T10:37:31;100516.53;;;20.15;74.69
55576;BME280;41437;45.478;9.116;2022-10-31T10:40:34;100519.25;;;20.33;72.48
55576;BME280;41437;45.478;9.116;2022-10-31T10:43:37;100507.84;;;20.30;72.34
55576;BME280;41437;45.478;9.116;2022-10-31T10:46:41;100501.81;;;20.37;71.79
55576;BME280;41437;45.478;9.116;2022-10-31T10:50:04;100504.84;;;20.40;72.15
55576;BME280;41437;45.478;9.116;2022-10-31T10:53:17;100503.41;;;20.43;71.79
55576;BME280;41437;45.478;9.116;2022-10-31T10:56:38;100498.75;;;20.52;70.35
55576;BME280;41437;45.478;9.116;2022-10-31T10:59:43;100491.78;;;20.63;70.11
55576;BME280;41437;45.478;9.116;2022-10-31T11:02:45;100492.13;;;20.62;70.21
55576;BME280;41437;45.478;9.116;2022-10-31T11:05:50;100482.25;;;20.78;68.94
55576;BME280;41437;45.478;9.116;2022-10-31T11:08:52;100478.88;;;21.03;67.75
55576;BME280;41437;45.478;9.116;2022-10-31T11:11:55;100478.28;;;21.29;66.09
55576;BME280;41437;45.478;9.116;2022-10-31T11:15:00;100478.38;;;21.38;64.34
55576;BME280;41437;45.478;9.116;2022-10-31T11:18:04;100493.34;;;21.19;65.53
55576;BME280;41437;45.478;9.116;2022-10-31T11:21:19;100494.88;;;20.89;66.35
55576;BME280;41437;45.478;9.116;2022-10-31T11:24:23;100484.72;;;20.79;67.72
55576;BME280;41437;45.478;9.116;2022-10-31T11:27:26;100485.38;;;20.63;68.41
55576;BME280;41437;45.478;9.116;2022-10-31T11:30:30;100481.00;;;20.43;69.69
55576;BME280;41437;45.478;9.116;2022-10-31T11:33:34;100494.06;;;20.33;68.86
55576;BME280;41437;45.478;9.116;2022-10-31T11:36:38;100492.38;;;20.32;70.60
55576;BME280;41437;45.478;9.116;2022-10-31T11:39:45;100484.53;;;20.34;69.98
55576;BME280;41437;45.478;9.116;2022-10-31T11:42:51;100475.34;;;20.48;69.82
55576;BME280;41437;45.478;9.116;2022-10-31T11:45:56;100473.63;;;20.74;68.10
55576;BME280;41437;45.478;9.116;2022-10-31T11:48:57;100471.84;;;20.92;67.36
55576;BME280;41437;45.478;9.116;2022-10-31T11:52:01;100461.66;;;20.96;67.45
55576;BME280;41437;45.478;9.116;2022-10-31T11:55:16;100460.78;;;21.09;66.90
55576;BME280;41437;45.478;9.116;2022-10-31T11:58:25;100467.91;;;21.16;67.21
55576;BME280;41437;45.478;9.116;2022-10-31T12:01:30;100460.72;;;21.37;65.99
55576;BME280;41437;45.478;9.116;2022-10-31T12:04:41;100464.78;;;21.53;65.92
55576;BME280;41437;45.478;9.116;2022-10-31T12:07:46;100454.06;;;21.78;65.25
55576;BME280;41437;45.478;9.116;2022-10-31T12:10:54;100448.91;;;22.02;63.47
55576;BME280;41437;45.478;9.116;2022-10-31T12:14:08;100443.91;;;22.22;61.22
55576;BME280;41437;45.478;9.116;2022-10-31T12:17:17;100435.19;;;22.32;61.43
55576;BME280;41437;45.478;9.116;2022-10-31T12:20:31;100436.00;;;22.24;61.87
55576;BME280;41437;45.478;9.116;2022-10-31T12:23:48;100431.63;;;22.09;64.03
55576;BME280;41437;45.478;9.116;2022-10-31T12:27:00;100418.47;;;21.87;64.38
55576;BME280;41437;45.478;9.116;2022-10-31T12:30:15;100416.44;;;21.79;63.62
55576;BME280;41437;45.478;9.116;2022-10-31T12:33:37;100417.59;;;21.78;64.08
55576;BME280;41437;45.478;9.116;2022-10-31T12:36:49;100408.22;;;21.82;63.05
55576;BME280;41437;45.478;9.116;2022-10-31T12:40:03;100405.31;;;21.96;62.92
55576;BME280;41437;45.478;9.116;2022-10-31T12:43:18;100401.72;;;22.04;62.95
55576;BME280;41437;45.478;9.116;2022-10-31T12:46:33;100391.50;;;22.08;62.52
55576;BME280;41437;45.478;9.116;2022-10-31T12:49:48;100379.00;;;22.15;62.01
55576;BME280;41437;45.478;9.116;2022-10-31T12:53:09;100376.41;;;22.27;61.00
55576;BME280;41437;45.478;9.116;2022-10-31T12:56:24;100377.41;;;22.40;60.12
55576;BME280;41437;45.478;9.116;2022-10-31T12:59:33;100360.19;;;22.24;59.61
55576;BME280;41437;45.478;9.116;2022-10-31T13:02:42;100367.66;;;22.37;57.64
55576;BME280;41437;45.478;9.116;2022-10-31T13:05:50;100359.13;;;22.51;56.06
55576;BME280;41437;45.478;9.116;2022-10-31T13:08:57;100368.38;;;22.77;56.42
55576;BME280;41437;45.478;9.116;2022-10-31T13:12:04;100363.91;;;22.85;56.21
55576;BME280;41437;45.478;9.116;2022-10-31T13:15:14;100365.06;;;22.67;54.79
55576;BME280;41437;45.478;9.116;2022-10-31T13:18:23;100365.38;;;22.39;56.26
55576;BME280;41437;45.478;9.116;2022-10-31T13:21:35;100362.97;;;22.15;56.99
55576;BME280;41437;45.478;9.116;2022-10-31T13:24:41;100362.00;;;22.20;57.87
55576;BME280;41437;45.478;9.116;2022-10-31T13:27:52;100366.16;;;22.22;58.69
55576;BME280;41437;45.478;9.116;2022-10-31T13:30:54;100358.06;;;22.21;58.34
55576;BME280;41437;45.478;9.116;2022-10-31T13:33:58;100352.13;;;22.22;57.21
55576;BME280;41437;45.478;9.116;2022-10-31T13:37:11;100354.56;;;22.15;57.28
55576;BME280;41437;45.478;9.116;2022-10-31T13:40:22;100354.66;;;22.01;57.37
55576;BME280;41437;45.478;9.116;2022-10-31T13:43:35;100345.22;;;21.97;58.19
55576;BME280;41437;45.478;9.116;2022-10-31T13:46:40;100339.34;;;22.07;57.30
55576;BME280;41437;45.478;9.116;2022-10-31T13:49:42;100323.31;;;22.08;57.76
55576;BME280;41437;45.478;9.116;2022-10-31T13:52:45;100328.13;;;22.07;57.86
55576;BME280;41437;45.478;9.116;2022-10-31T13:55:48;100328.13;;;22.07;57.83
55576;BME280;41437;45.478;9.116;2022-10-31T13:59:21;100326.97;;;22.08;58.24
55576;BME280;41437;45.478;9.116;2022-10-31T14:02:26;100324.16;;;22.08;57.72
55576;BME280;41437;45.478;9.116;2022-10-31T14:05:30;100314.41;;;22.06;57.33
55576;BME280;41437;45.478;9.116;2022-10-31T14:08:37;100307.78;;;22.02;57.40
55576;BME280;41437;45.478;9.116;2022-10-31T14:11:45;100309.06;;;21.87;57.68
55576;BME280;41437;45.478;9.116;2022-10-31T14:14:51;100305.91;;;21.80;57.78
55576;BME280;41437;45.478;9.116;2022-10-31T14:17:55;100298.28;;;21.72;57.82
55576;BME280;41437;45.478;9.116;2022-10-31T14:20:57;100308.81;;;21.66;56.89
55576;BME280;41437;45.478;9.116;2022-10-31T14:24:13;100302.88;;;21.68;55.54
55576;BME280;41437;45.478;9.116;2022-10-31T14:27:34;100306.69;;;21.72;54.35
55576;BME280;41437;45.478;9.116;2022-10-31T14:30:37;100306.63;;;21.54;54.63
55576;BME280;41437;45.478;9.116;2022-10-31T14:33:42;100302.19;;;21.31;53.96
55576;BME280;41437;45.478;9.116;2022-10-31T14:36:54;100294.50;;;21.14;55.47
55576;BME280;41437;45.478;9.116;2022-10-31T14:40:17;100294.06;;;21.21;55.81
55576;BME280;41437;45.478;9.116;2022-10-31T14:43:35;100288.31;;;21.26;54.17
55576;BME280;41437;45.478;9.116;2022-10-31T14:46:47;100290.38;;;21.34;55.85
55576;BME280;41437;45.478;9.116;2022-10-31T14:50:23;100295.69;;;21.44;55.29
55576;BME280;41437;45.478;9.116;2022-10-31T14:53:27;100286.84;;;21.51;56.23
55576;BME280;41437;45.478;9.116;2022-10-31T14:56:34;100290.81;;;21.58;56.09
55576;BME280;41437;45.478;9.116;2022-10-31T14:59:37;100292.97;;;21.62;56.19
55576;BME280;41437;45.478;9.116;2022-10-31T15:02:49;100292.63;;;21.63;56.64
55576;BME280;41437;45.478;9.116;2022-10-31T15:05:54;100280.75;;;21.57;56.71
55576;BME280;41437;45.478;9.116;2022-10-31T15:08:57;100291.50;;;21.64;56.39
55576;BME280;41437;45.478;9.116;2022-10-31T15:12:01;100289.97;;;21.58;57.34
55576;BME280;41437;45.478;9.116;2022-10-31T15:15:19;100284.19;;;21.54;57.44
55576;BME280;41437;45.478;9.116;2022-10-31T15:18:24;100280.22;;;21.47;58.42
55576;BME280;41437;45.478;9.116;2022-10-31T15:21:27;100283.81;;;21.39;58.73
55576;BME280;41437;45.478;9.116;2022-10-31T15:24:34;100285.38;;;21.31;58.65
55576;BME280;41437;45.478;9.116;2022-10-31T15:27:40;100284.13;;;21.15;60.13
55576;BME280;41437;45.478;9.116;2022-10-31T15:30:50;100273.84;;;21.01;60.89
55576;BME280;41437;45.478;9.116;2022-10-31T15:33:53;100282.84;;;20.90;60.73
55576;BME280;41437;45.478;9.116;2022-10-31T15:36:57;100272.34;;;20.73;61.76
55576;BME280;41437;45.478;9.116;2022-10-31T15:40:06;100276.88;;;20.46;62.06
55576;BME280;41437;45.478;9.116;2022-10-31T15:43:15;100259.22;;;20.23;63.77
55576;BME280;41437;45.478;9.116;2022-10-31T15:46:17;100260.72;;;19.93;66.08
55576;BME280;41437;45.478;9.116;2022-10-31T15:49:32;100273.56;;;19.80;66.45
55576;BME280;41437;45.478;9.116;2022-10-31T15:52:38;100274.22;;;19.64;67.30
55576;BME280;41437;45.478;9.116;2022-10-31T15:55:47;100266.81;;;19.40;69.19
55576;BME280;41437;45.478;9.116;2022-10-31T15:58:52;100268.56;;;19.22;69.36
55576;BME280;41437;45.478;9.116;2022-10-31T16:02:01;100266.97;;;19.02;70.54
55576;BME280;41437;45.478;9.116;2022-10-31T16:05:16;100278.41;;;18.87;71.70